If you wish to contribute or participate in the discussions about articles you are invited to join SKYbrary as a registered user

 Actions

Castres-Mazamet Airport

From SKYbrary Wiki

LFCK
Airport
ICAO: LFCK – IATA: DCM
Summary
Name Castres-Mazamet Airport
Region Europe
Territory France FR.gif
Location , Midi-Pyrenees
Serving Castres
Elevation 240.182 m
788 ft
788 ft240.182 m
Type medium airport
Coordinates 43° 33' 22.50" N, 2° 17' 21.06" E
Runways
Designator Length Width Surface ROPS
14/32 1825 m5,987.533 ft
30 m98.425 ft
CON /


METAR
Observation LFCK 180830Z AUTO 11024G36KT CAVOK 26/19 Q1011 NOSIG
Station Castres-Mazamet
Date/Time 18 August 2019 08:30:00
Wind direction 110°
Wind speed 24 kts
Lowest cloud amount clouds and visibility OK
Temperature 26°C
Dew point 19°C
Humidity 65%
QNH 1011 hPa
Weather condition n/a